createdAt,value
2022-07-29T00:00:52.066Z,1.35
2022-07-29T00:03:18.526Z,1.45
2022-07-29T00:05:44.980Z,1.50
2022-07-29T00:08:12.680Z,1.20
2022-07-29T00:10:39.532Z,1.42
2022-07-29T00:13:05.905Z,2.00
2022-07-29T00:15:32.255Z,2.10
2022-07-29T00:17:58.599Z,2.35
2022-07-29T00:20:25.150Z,2.17
2022-07-29T00:22:51.564Z,2.70
2022-07-29T00:25:17.916Z,2.60
2022-07-29T00:27:44.430Z,2.42
2022-07-29T00:30:10.871Z,2.20
2022-07-29T00:32:37.246Z,2.13
2022-07-29T00:35:22.713Z,2.10
2022-07-29T00:37:49.089Z,2.15
2022-07-29T00:40:15.482Z,1.52
2022-07-29T00:42:48.794Z,1.73
2022-07-29T00:45:15.669Z,1.50
2022-07-29T00:47:42.060Z,1.40
2022-07-29T00:50:09.372Z,1.50
2022-07-29T00:52:36.882Z,1.55
2022-07-29T00:55:08.499Z,1.55
2022-07-29T00:57:36.044Z,1.50
2022-07-29T01:00:04.520Z,1.60
2022-07-29T01:02:30.884Z,1.65
2022-07-29T01:04:58.093Z,1.25
2022-07-29T01:07:25.591Z,1.45
2022-07-29T01:09:52.613Z,1.30
2022-07-29T01:12:20.470Z,1.33
2022-07-29T01:14:47.510Z,1.50
2022-07-29T01:17:50.384Z,1.20
2022-07-29T01:20:38.210Z,1.38
2022-07-29T01:23:07.658Z,1.30
2022-07-29T01:25:45.615Z,1.23
2022-07-29T01:28:14.976Z,1.33
2022-07-29T01:30:42.992Z,1.13
2022-07-29T01:33:33.438Z,1.20
2022-07-29T01:36:01.506Z,1.02
2022-07-29T01:38:28.993Z,1.30
2022-07-29T01:41:00.045Z,0.98
2022-07-29T01:43:33.927Z,0.90
2022-07-29T01:46:02.269Z,0.80
2022-07-29T01:48:32.502Z,0.90
2022-07-29T01:51:17.708Z,1.00
2022-07-29T01:53:51.418Z,0.93
2022-07-29T01:56:19.536Z,1.00
2022-07-29T01:58:46.739Z,0.90
2022-07-29T02:01:13.472Z,1.10
2022-07-29T02:03:40.730Z,1.10
2022-07-29T02:06:08.085Z,1.15
2022-07-29T02:08:35.177Z,1.20
2022-07-29T02:11:02.020Z,1.40
2022-07-29T02:13:29.081Z,1.20
2022-07-29T02:15:56.538Z,0.95
2022-07-29T02:18:25.074Z,1.10
2022-07-29T02:20:53.693Z,1.25
2022-07-29T02:23:22.969Z,1.30
2022-07-29T02:25:50.333Z,1.30
2022-07-29T02:28:18.116Z,1.30
2022-07-29T02:30:45.055Z,1.10
2022-07-29T02:33:14.272Z,1.10
2022-07-29T02:35:41.873Z,1.15
2022-07-29T02:38:28.867Z,1.10
2022-07-29T02:40:56.407Z,1.10
2022-07-29T02:43:23.536Z,1.10
2022-07-29T02:45:52.524Z,1.20
2022-07-29T02:48:19.487Z,1.00
2022-07-29T02:50:49.776Z,1.00
2022-07-29T02:53:19.163Z,1.20
2022-07-29T02:55:52.146Z,1.20
2022-07-29T02:58:24.450Z,1.20
2022-07-29T03:00:52.519Z,1.33
2022-07-29T03:03:19.589Z,1.45
2022-07-29T03:05:46.355Z,1.15
2022-07-29T03:08:13.738Z,1.10
2022-07-29T03:10:41.283Z,1.23
2022-07-29T03:13:08.787Z,1.23
2022-07-29T03:15:35.608Z,1.50
2022-07-29T03:18:02.215Z,1.30
2022-07-29T03:20:28.702Z,1.13
2022-07-29T03:22:55.058Z,1.33
2022-07-29T03:25:21.569Z,1.30
2022-07-29T03:27:48.500Z,1.50
2022-07-29T03:30:21.839Z,1.45
2022-07-29T03:32:48.870Z,1.30
2022-07-29T03:35:17.430Z,1.50
2022-07-29T03:37:44.557Z,1.38
2022-07-29T03:40:12.396Z,1.30
2022-07-29T03:42:40.741Z,1.40
2022-07-29T03:45:08.907Z,1.55
2022-07-29T03:47:49.752Z,1.65
2022-07-29T03:50:17.169Z,1.50
2022-07-29T03:52:43.572Z,1.52
2022-07-29T03:55:12.703Z,1.30
2022-07-29T03:57:39.434Z,1.55
2022-07-29T04:00:06.760Z,1.80
2022-07-29T04:02:33.365Z,1.75
2022-07-29T04:05:00.021Z,1.50
2022-07-29T04:07:26.434Z,1.60
2022-07-29T04:09:52.807Z,1.75
2022-07-29T04:12:19.175Z,1.60
2022-07-29T04:14:45.551Z,1.70
2022-07-29T04:17:11.956Z,1.58
2022-07-29T04:19:38.362Z,1.52
2022-07-29T04:22:04.691Z,1.60
2022-07-29T04:24:31.053Z,1.70
2022-07-29T04:26:57.400Z,1.73
2022-07-29T04:29:23.744Z,1.90
2022-07-29T04:31:50.087Z,1.80
2022-07-29T04:34:16.884Z,1.77
2022-07-29T04:36:43.519Z,2.20
2022-07-29T04:39:11.006Z,1.70
2022-07-29T04:41:37.984Z,1.70
2022-07-29T04:44:12.373Z,1.65
2022-07-29T04:46:38.979Z,1.55
2022-07-29T04:49:05.478Z,1.80
2022-07-29T04:51:32.146Z,1.60
2022-07-29T04:53:58.557Z,1.52
2022-07-29T04:56:25.008Z,1.30
2022-07-29T04:58:51.413Z,1.73
2022-07-29T05:01:17.853Z,1.55
2022-07-29T05:03:44.922Z,1.50
2022-07-29T05:06:11.271Z,1.75
2022-07-29T05:08:37.684Z,1.40
2022-07-29T05:11:11.727Z,1.23
2022-07-29T05:13:45.906Z,1.63
2022-07-29T05:16:14.123Z,1.42
2022-07-29T05:18:40.687Z,1.60
2022-07-29T05:21:07.264Z,1.77
2022-07-29T05:23:33.587Z,1.70
2022-07-29T05:25:59.932Z,1.80
2022-07-29T05:28:26.263Z,1.55
2022-07-29T05:30:52.689Z,1.70
2022-07-29T05:33:35.221Z,1.45
2022-07-29T05:36:03.318Z,1.90
2022-07-29T05:38:29.778Z,1.70
2022-07-29T05:40:57.333Z,1.50
2022-07-29T05:43:23.971Z,1.52
2022-07-29T05:45:50.505Z,1.50
2022-07-29T05:48:16.950Z,1.42
2022-07-29T05:50:44.216Z,1.58
2022-07-29T05:53:19.617Z,1.45
2022-07-29T05:55:47.738Z,1.75
2022-07-29T05:58:14.145Z,1.85
2022-07-29T06:00:40.954Z,1.80
2022-07-29T06:03:07.386Z,1.75
2022-07-29T06:05:33.732Z,1.55
2022-07-29T06:08:00.081Z,1.52
2022-07-29T06:10:27.129Z,1.67
2022-07-29T06:12:54.054Z,1.75
2022-07-29T06:15:20.591Z,1.67
2022-07-29T06:17:59.043Z,1.67
2022-07-29T06:20:27.713Z,1.63
2022-07-29T06:22:54.098Z,1.50
2022-07-29T06:25:20.486Z,1.40
2022-07-29T06:27:46.832Z,1.77
2022-07-29T06:30:13.603Z,1.70
2022-07-29T06:32:43.036Z,1.55
2022-07-29T06:35:37.571Z,1.40
2022-07-29T06:37:56.356Z,1.50
2022-07-29T06:40:44.439Z,1.70
2022-07-29T06:43:11.724Z,1.73
2022-07-29T06:45:39.527Z,1.70
2022-07-29T06:48:05.973Z,1.40
2022-07-29T06:50:32.338Z,1.70
2022-07-29T06:52:58.701Z,1.60
2022-07-29T06:55:25.578Z,1.40
2022-07-29T06:57:52.342Z,1.60
2022-07-29T07:00:18.807Z,1.80
2022-07-29T07:02:45.276Z,1.70
2022-07-29T07:05:13.803Z,1.40
2022-07-29T07:07:40.162Z,1.60
2022-07-29T07:10:06.657Z,1.60
2022-07-29T07:12:33.031Z,1.50
2022-07-29T07:14:59.381Z,1.80
2022-07-29T07:17:25.833Z,1.45
2022-07-29T07:19:52.217Z,1.50
2022-07-29T07:22:18.551Z,1.35
2022-07-29T07:24:44.908Z,1.50
2022-07-29T07:27:11.253Z,1.48
2022-07-29T07:29:37.633Z,1.25
2022-07-29T07:32:04.135Z,1.40
2022-07-29T07:34:31.090Z,1.40
2022-07-29T07:36:57.440Z,1.25
2022-07-29T07:39:23.775Z,1.48
2022-07-29T07:41:50.103Z,1.10
2022-07-29T07:44:16.606Z,1.00
2022-07-29T07:46:43.121Z,1.10
2022-07-29T07:49:09.612Z,1.08
2022-07-29T07:51:35.975Z,1.38
2022-07-29T07:54:02.798Z,1.00
2022-07-29T07:56:33.330Z,1.40
2022-07-29T07:59:01.627Z,1.20
2022-07-29T08:01:28.035Z,1.20
2022-07-29T08:03:54.432Z,1.25
2022-07-29T08:06:21.024Z,1.30
2022-07-29T08:08:47.405Z,0.90
2022-07-29T08:11:14.204Z,1.13
2022-07-29T08:13:40.614Z,1.30
2022-07-29T08:16:14.167Z,1.27
2022-07-29T08:18:41.323Z,1.02
2022-07-29T08:21:07.699Z,1.35
2022-07-29T08:23:46.010Z,1.38
2022-07-29T08:26:15.944Z,1.48
2022-07-29T08:28:46.447Z,1.33
2022-07-29T08:31:13.815Z,1.23
2022-07-29T08:33:40.167Z,1.45
2022-07-29T08:36:07.042Z,1.42
2022-07-29T08:38:33.531Z,1.20
2022-07-29T08:41:01.870Z,1.40
2022-07-29T08:43:31.372Z,1.50
2022-07-29T08:45:57.794Z,1.48
2022-07-29T08:48:24.667Z,1.30
2022-07-29T08:50:55.104Z,1.48
2022-07-29T08:53:22.098Z,1.77
2022-07-29T08:55:50.374Z,1.40
2022-07-29T08:58:17.427Z,1.20
2022-07-29T09:00:45.901Z,1.50
2022-07-29T09:03:16.493Z,1.40
2022-07-29T09:05:47.786Z,1.70
2022-07-29T09:08:15.129Z,1.83
2022-07-29T09:10:41.518Z,1.60
2022-07-29T09:13:07.852Z,1.80
2022-07-29T09:15:34.241Z,1.70
2022-07-29T09:18:01.336Z,2.30
2022-07-29T09:20:47.764Z,1.73
2022-07-29T09:23:23.270Z,1.90
2022-07-29T09:25:51.405Z,1.80
2022-07-29T09:28:18.537Z,1.60
2022-07-29T09:30:54.850Z,1.25
2022-07-29T09:33:22.284Z,1.60
2022-07-29T09:36:00.027Z,1.90
2022-07-29T09:38:28.237Z,1.38
2022-07-29T09:41:03.012Z,1.80
2022-07-29T09:43:32.639Z,1.75
2022-07-29T09:46:12.311Z,1.90
2022-07-29T09:48:38.905Z,1.70
2022-07-29T09:51:06.771Z,1.83
2022-07-29T09:53:34.528Z,1.80
2022-07-29T09:56:00.937Z,1.67
2022-07-29T09:58:27.339Z,1.70
2022-07-29T10:00:54.322Z,1.88
2022-07-29T10:03:20.823Z,1.90
2022-07-29T10:05:47.591Z,1.67
2022-07-29T10:08:14.113Z,1.88
2022-07-29T10:10:43.864Z,2.00
2022-07-29T10:13:15.361Z,1.63
2022-07-29T10:15:45.309Z,1.90
2022-07-29T10:18:12.513Z,1.50
2022-07-29T10:20:39.144Z,1.85
2022-07-29T10:23:05.784Z,1.98
2022-07-29T10:25:32.583Z,2.03
2022-07-29T10:27:59.041Z,2.00
2022-07-29T10:30:26.423Z,1.92
2022-07-29T10:33:12.365Z,2.00
2022-07-29T10:35:44.958Z,2.38
2022-07-29T10:38:30.142Z,1.60
2022-07-29T10:41:27.480Z,1.95
2022-07-29T10:44:02.398Z,1.83
2022-07-29T10:46:29.541Z,1.55
2022-07-29T10:49:09.550Z,1.90
2022-07-29T10:51:51.134Z,1.90
2022-07-29T10:54:36.615Z,2.22
2022-07-29T10:57:15.042Z,1.77
2022-07-29T10:59:46.189Z,2.10
2022-07-29T11:02:42.226Z,2.10
2022-07-29T11:05:18.774Z,2.35
2022-07-29T11:08:21.109Z,2.00
2022-07-29T11:10:54.189Z,2.20
2022-07-29T11:13:41.454Z,2.15
2022-07-29T11:16:09.104Z,2.17
2022-07-29T11:18:37.678Z,2.08
2022-07-29T11:21:04.190Z,2.15
2022-07-29T11:23:33.465Z,2.17
2022-07-29T11:26:23.389Z,2.00
2022-07-29T11:28:55.649Z,2.13
2022-07-29T11:31:42.688Z,2.00
2022-07-29T11:34:27.769Z,1.80
2022-07-29T11:37:13.754Z,1.90
2022-07-29T11:39:40.989Z,2.22
2022-07-29T11:42:32.657Z,1.90
2022-07-29T11:45:33.462Z,1.95
2022-07-29T11:47:48.783Z,2.20
2022-07-29T11:50:35.426Z,1.90
2022-07-29T11:55:55.445Z,1.80
2022-07-29T11:58:26.063Z,1.83
2022-07-29T12:00:53.269Z,1.92
2022-07-29T12:03:34.838Z,1.92
2022-07-29T12:06:03.015Z,1.83
2022-07-29T12:07:02.231Z,1.95
2022-07-29T12:08:30.542Z,1.70
2022-07-29T12:10:56.965Z,1.88
2022-07-29T12:13:37.026Z,2.05
2022-07-29T12:16:04.650Z,1.75
2022-07-29T12:18:31.658Z,1.90
2022-07-29T12:21:04.549Z,1.90
2022-07-29T12:23:34.491Z,1.70
2022-07-29T12:26:01.802Z,1.50
2022-07-29T12:28:28.296Z,1.80
2022-07-29T12:30:54.706Z,1.50
2022-07-29T12:33:23.256Z,1.50
2022-07-29T12:36:06.209Z,1.73
2022-07-29T12:38:35.572Z,1.70
2022-07-29T12:41:02.011Z,1.70
2022-07-29T12:43:31.024Z,1.85
2022-07-29T12:45:58.025Z,1.92
2022-07-29T12:48:37.474Z,1.83
2022-07-29T12:51:04.693Z,1.55
2022-07-29T12:53:31.269Z,1.80
2022-07-29T12:56:00.638Z,1.80
2022-07-29T12:58:36.937Z,1.63
2022-07-29T13:01:16.943Z,1.77
2022-07-29T13:03:59.663Z,1.70
2022-07-29T13:06:29.329Z,2.00
2022-07-29T13:09:06.305Z,2.05
2022-07-29T13:11:36.171Z,1.80
2022-07-29T13:14:06.962Z,2.13
2022-07-29T13:16:33.766Z,2.25
2022-07-29T13:19:10.415Z,1.90
2022-07-29T13:21:37.483Z,2.13
2022-07-29T13:24:04.107Z,1.88
2022-07-29T13:26:30.465Z,2.15
2022-07-29T13:28:56.844Z,1.95
2022-07-29T13:31:23.465Z,1.77
2022-07-29T13:33:49.937Z,1.95
2022-07-29T13:36:16.400Z,1.92
2022-07-29T13:38:42.959Z,2.13
2022-07-29T13:41:09.338Z,2.15
2022-07-29T13:43:35.676Z,1.92
2022-07-29T13:46:02.525Z,2.05
2022-07-29T13:48:28.952Z,2.00
2022-07-29T13:50:55.354Z,2.10
2022-07-29T13:53:27.225Z,2.03
2022-07-29T13:55:54.120Z,2.30
2022-07-29T13:58:20.473Z,2.40
2022-07-29T14:00:47.575Z,2.35
2022-07-29T14:03:13.925Z,1.90
2022-07-29T14:05:40.307Z,2.10
2022-07-29T14:08:06.716Z,1.70
2022-07-29T14:10:33.075Z,1.95
2022-07-29T14:12:59.454Z,2.00
2022-07-29T14:15:25.916Z,1.88
2022-07-29T14:17:52.306Z,1.80
2022-07-29T14:20:18.878Z,2.15
2022-07-29T14:22:45.747Z,2.03
2022-07-29T14:25:15.082Z,2.08
2022-07-29T14:27:42.301Z,1.70
2022-07-29T14:30:09.150Z,1.90
2022-07-29T14:32:35.555Z,2.00
2022-07-29T14:35:01.913Z,1.75
2022-07-29T14:37:28.296Z,1.70
2022-07-29T14:40:06.493Z,1.83
2022-07-29T14:42:32.835Z,2.00
2022-07-29T14:44:59.262Z,1.52
2022-07-29T14:47:25.652Z,1.90
2022-07-29T14:49:52.036Z,2.00
2022-07-29T14:52:18.384Z,2.20
2022-07-29T14:54:44.732Z,1.70
2022-07-29T14:57:11.083Z,1.42
2022-07-29T14:59:37.793Z,1.65
2022-07-29T15:02:04.472Z,1.73
2022-07-29T15:04:31.296Z,1.80
2022-07-29T15:06:57.707Z,1.63
2022-07-29T15:09:24.256Z,1.80
2022-07-29T15:11:50.653Z,1.70
2022-07-29T15:14:17.011Z,1.80
2022-07-29T15:16:43.674Z,2.08
2022-07-29T15:19:10.341Z,1.65
2022-07-29T15:21:36.694Z,1.90
2022-07-29T15:24:14.635Z,1.90
2022-07-29T15:26:41.093Z,2.00
2022-07-29T15:29:07.523Z,1.60
2022-07-29T15:31:33.911Z,1.60
2022-07-29T15:34:05.029Z,1.90
2022-07-29T15:39:19.340Z,1.98
2022-07-29T15:41:45.719Z,2.00
2022-07-29T15:44:12.076Z,1.88
2022-07-29T15:46:57.358Z,2.30
2022-07-29T15:49:24.463Z,2.03
2022-07-29T15:51:50.887Z,2.47
2022-07-29T15:54:17.617Z,2.25
2022-07-29T15:56:43.988Z,1.75
2022-07-29T15:59:10.364Z,2.20
2022-07-29T16:01:49.011Z,2.13
2022-07-29T16:04:16.280Z,2.53
2022-07-29T16:06:42.853Z,2.00
2022-07-29T16:09:09.257Z,2.30
2022-07-29T16:11:35.700Z,2.10
2022-07-29T16:14:02.272Z,2.60
2022-07-29T16:16:28.760Z,2.65
2022-07-29T16:18:55.376Z,2.30
2022-07-29T16:21:23.345Z,2.53
2022-07-29T16:23:49.905Z,2.45
2022-07-29T16:26:16.467Z,2.22
2022-07-29T16:28:45.955Z,2.38
2022-07-29T16:31:13.764Z,2.20
2022-07-29T16:33:54.585Z,2.70
2022-07-29T16:36:22.551Z,2.17
2022-07-29T16:38:49.007Z,2.28
2022-07-29T16:41:15.383Z,2.60
2022-07-29T16:43:41.744Z,2.33
2022-07-29T16:46:09.224Z,2.20
2022-07-29T16:48:39.717Z,2.40
2022-07-29T16:51:07.457Z,2.65
2022-07-29T16:53:34.373Z,2.80
2022-07-29T16:56:01.228Z,2.45
2022-07-29T16:58:27.581Z,2.40
2022-07-29T17:00:53.995Z,2.83
2022-07-29T17:03:20.461Z,2.20
2022-07-29T17:05:52.680Z,2.60
2022-07-29T17:08:20.999Z,2.70
2022-07-29T17:10:47.533Z,3.05
2022-07-29T17:13:14.343Z,2.97
2022-07-29T17:15:42.480Z,2.50
2022-07-29T17:18:12.650Z,2.72
2022-07-29T17:20:40.536Z,2.58
2022-07-29T17:23:08.062Z,2.55
2022-07-29T17:25:34.504Z,2.30
2022-07-29T17:28:01.342Z,2.88
2022-07-29T17:30:28.031Z,2.50
2022-07-29T17:32:54.843Z,2.67
2022-07-29T17:35:39.749Z,2.20
2022-07-29T17:38:06.129Z,2.50
2022-07-29T17:40:32.496Z,2.47
2022-07-29T17:42:58.916Z,2.20
2022-07-29T17:45:25.456Z,2.05
2022-07-29T17:47:51.848Z,2.03
2022-07-29T17:50:18.223Z,1.88
2022-07-29T17:52:44.640Z,2.10
2022-07-29T17:55:13.221Z,1.77
2022-07-29T17:57:39.604Z,1.80
2022-07-29T18:00:08.260Z,1.42
2022-07-29T18:02:37.395Z,1.50
2022-07-29T18:05:04.487Z,1.90
2022-07-29T18:07:30.868Z,1.70
2022-07-29T18:10:00.418Z,1.90
2022-07-29T18:12:27.175Z,1.88
2022-07-29T18:14:53.549Z,1.95
2022-07-29T18:17:19.918Z,1.77
2022-07-29T18:19:46.359Z,2.00
2022-07-29T18:22:14.108Z,1.52
2022-07-29T18:24:40.978Z,1.33
2022-07-29T18:27:07.347Z,1.65
2022-07-29T18:29:33.983Z,1.75
2022-07-29T18:32:01.436Z,1.70
2022-07-29T18:34:28.241Z,1.30
2022-07-29T18:36:54.587Z,1.30
2022-07-29T18:39:21.460Z,1.10
2022-07-29T18:41:50.681Z,1.27
2022-07-29T18:44:22.025Z,0.98
2022-07-29T18:46:49.479Z,1.42
2022-07-29T18:49:16.000Z,1.50
2022-07-29T18:51:42.765Z,1.50
2022-07-29T18:54:10.433Z,1.20
2022-07-29T18:56:37.209Z,1.67
2022-07-29T18:59:04.194Z,1.33
2022-07-29T19:01:31.604Z,1.70
2022-07-29T19:03:58.972Z,1.58
2022-07-29T19:06:25.945Z,1.92
2022-07-29T19:08:52.743Z,1.70
2022-07-29T19:11:19.153Z,1.77
2022-07-29T19:13:45.480Z,1.50
2022-07-29T19:16:13.987Z,1.77
2022-07-29T19:18:40.845Z,1.70
2022-07-29T19:21:07.310Z,1.70
2022-07-29T19:24:06.025Z,2.30
2022-07-29T19:26:22.981Z,2.13
2022-07-29T19:28:52.657Z,2.70
2022-07-29T19:31:19.057Z,2.35
2022-07-29T19:33:45.424Z,2.65
2022-07-29T19:36:11.760Z,2.92
2022-07-29T19:38:39.417Z,3.05
2022-07-29T19:41:06.320Z,3.17
2022-07-29T19:43:50.411Z,3.10
2022-07-29T19:46:20.402Z,3.17
2022-07-29T19:48:46.879Z,3.05
2022-07-29T19:51:13.301Z,3.05
2022-07-29T19:53:39.664Z,2.88
2022-07-29T19:56:06.099Z,2.97
2022-07-29T19:58:35.575Z,2.90
2022-07-29T20:01:02.702Z,2.20
2022-07-29T20:03:37.271Z,2.80
2022-07-29T20:06:03.675Z,2.47
2022-07-29T20:08:30.024Z,3.00
2022-07-29T20:10:56.361Z,2.70
2022-07-29T20:13:22.711Z,2.72
2022-07-29T20:15:49.097Z,2.42
2022-07-29T20:18:15.980Z,2.90
2022-07-29T20:20:42.322Z,2.92
2022-07-29T20:23:08.690Z,2.58
2022-07-29T20:25:35.045Z,3.13
2022-07-29T20:28:01.396Z,2.38
2022-07-29T20:30:27.789Z,2.70
2022-07-29T20:32:55.759Z,2.47
2022-07-29T20:35:22.408Z,2.70
2022-07-29T20:37:52.312Z,2.65
2022-07-29T20:40:23.305Z,2.67
2022-07-29T20:42:49.664Z,2.47
2022-07-29T20:45:16.020Z,2.35
2022-07-29T20:47:42.383Z,2.97
2022-07-29T20:50:10.037Z,3.10
2022-07-29T20:52:36.467Z,3.10
2022-07-29T20:55:02.889Z,2.97
2022-07-29T20:57:39.047Z,2.90
2022-07-29T21:00:07.008Z,3.38
2022-07-29T21:02:33.485Z,3.67
2022-07-29T21:04:59.851Z,3.13
2022-07-29T21:07:26.206Z,3.13
2022-07-29T21:09:52.612Z,4.15
2022-07-29T21:12:19.012Z,3.83
2022-07-29T21:14:48.248Z,3.47
2022-07-29T21:17:15.516Z,4.55
2022-07-29T21:19:42.540Z,4.30
2022-07-29T21:22:09.183Z,3.70
2022-07-29T21:24:35.561Z,3.55
2022-07-29T21:27:21.772Z,4.28
2022-07-29T21:29:48.406Z,3.85
2022-07-29T21:32:27.432Z,4.05
2022-07-29T21:34:56.595Z,4.10
2022-07-29T21:37:22.975Z,4.78
2022-07-29T21:39:49.315Z,4.88
2022-07-29T21:42:15.696Z,5.03
2022-07-29T21:44:42.095Z,4.32
2022-07-29T21:47:09.103Z,4.38
2022-07-29T21:49:35.553Z,4.63
2022-07-29T21:52:04.139Z,5.10
2022-07-29T21:54:31.181Z,3.92
2022-07-29T21:56:57.619Z,5.10
2022-07-29T21:59:24.565Z,3.90
2022-07-29T22:01:50.977Z,4.22
2022-07-29T22:04:17.509Z,4.13
2022-07-29T22:06:43.950Z,4.05
2022-07-29T22:09:10.335Z,3.63
2022-07-29T22:11:36.795Z,4.20
2022-07-29T22:14:04.162Z,3.63
2022-07-29T22:16:30.604Z,3.30
2022-07-29T22:18:57.024Z,3.90
2022-07-29T22:21:23.413Z,3.17
2022-07-29T22:23:49.868Z,3.75
2022-07-29T22:26:16.218Z,3.97
2022-07-29T22:28:42.569Z,4.10
2022-07-29T22:31:09.083Z,3.35
2022-07-29T22:33:35.530Z,3.63
2022-07-29T22:36:01.912Z,3.95
2022-07-29T22:38:28.448Z,3.47
2022-07-29T22:40:54.837Z,3.85
2022-07-29T22:43:26.995Z,3.42
2022-07-29T22:45:53.402Z,3.03
2022-07-29T22:48:19.794Z,3.55
2022-07-29T22:50:46.239Z,3.40
2022-07-29T22:53:12.627Z,3.63
2022-07-29T22:55:38.949Z,3.40
2022-07-29T22:58:05.420Z,4.00
2022-07-29T23:00:31.821Z,3.50
2022-07-29T23:02:58.143Z,3.47
2022-07-29T23:05:24.515Z,3.80
2022-07-29T23:07:50.860Z,3.47
2022-07-29T23:10:17.270Z,3.97
2022-07-29T23:12:43.595Z,3.63
2022-07-29T23:15:09.929Z,3.50
2022-07-29T23:17:36.881Z,4.20
2022-07-29T23:20:04.831Z,3.63
2022-07-29T23:22:31.256Z,3.10
2022-07-29T23:24:57.585Z,3.25
2022-07-29T23:27:23.925Z,3.67
2022-07-29T23:29:50.528Z,3.85
2022-07-29T23:32:16.877Z,3.70
2022-07-29T23:34:43.232Z,3.97
2022-07-29T23:37:09.592Z,4.63
2022-07-29T23:39:35.937Z,3.08
2022-07-29T23:42:02.519Z,4.43
2022-07-29T23:44:28.889Z,3.55
2022-07-29T23:46:55.222Z,4.15
2022-07-29T23:49:21.751Z,3.20
2022-07-29T23:51:48.127Z,3.60
2022-07-29T23:54:14.479Z,3.72
2022-07-29T23:56:40.871Z,3.50
2022-07-29T23:59:07.291Z,3.78
